Igor I Sikorsky Memorial Airport
KBDR : now visible

Airfield :











YOU CAN JOIN US ON...

 
LOGIN :

Register | Disclaimer

   EN    FR    IT 

 









Legend :    VFR   Marginal VFR   IFR   Intensive IFR   Very Intensive IFR
Visi :
Ceiling :
>= 8 km
>= 3000ft
5 to 8 km
1000 to 3000 ft
1500m to 5 km
500 to 1000 ft
800 to 1500m
200 to 500 ft
< 800m
< 200 ft
Symbols :   Thunderstorms  Fog  Heavy snow  Heavy precipitations  Wind > 20 kt






- Airport Elevation : 9 ft
- IATA code : BDR


KBDR - Igor I Sikorsky Memorial

CURRENT METAR :
  • 080752Z AUTO 29004KT 10SM CLR M05/M09 A3053 RMK AO2 SLP337 T10501094

EXPIRED METARs :
  • 080652Z AUTO 34003KT 10SM CLR M04/M09 A3052 RMK AO2 SLP334 T10441094
  • 080552Z AUTO 28003KT 10SM CLR M04/M09 A3051 RMK AO2 SLP331 T10391094 10000 21056 50006

TAF KBDR
Valid from the 08 at 06:00 until the 09 at 06:00 UTC


080530Z 0806/0906 VRB03KT P6SM FEW250
FM081500 17006KT P6SM SCT250
FM081800 18009G15KT P6SM BKN250
FM082300 22015KT 5SM BR BKN060
FM090500 22006KT 5SM BR VCSH BKN060



MET'MAP, your aeronautical weather chart ! - Copyright ORBIFLY December 2007 - Disclaimer

ORBIFLY MET'MAP TEAM :

Programming & Development : Alexandra Zaïnal
Concept & original design : Baudouin d'Aumeries
Assistance for programming : Marc-Olivier Méhu
Technical & hardware support : Manuel Goepfert

Contact : metmap@orbifly.com




SOURCES & CREDITS :

   NOAA       Earth
Advisory